Miyun, China
Current Conditions -  °F | °C
As of 1:30 AM on Tuesday 25 Nov 2014 (Local Time) from ZBAA Reporting Station
Clear Clear  
Wind Chill: 30°   Ceiling: Unl
Heat Index: 34°   Visibility: 4mi
Dew Point: 25°   Wind: 4mph
Humidity: 70%   Direction: 80°E
Pressure: 30.27"   Gusts: NA
Location:  40.37°N, 116.82°E
Report Text: ZBAA 241730Z 08002MPS 6000 NSC 01/M04 Q1025 NOSIG
Loading
Personal Weather Stations






























Interactive Weather Map New forecast layout! Learn more

10-Day Weather Forecast

Advertisements
Track Severe Weather on mobile